Time;durP1;ratioP1;P1;durP2;ratioP2;P2;SDS_P1;SDS_P2;PMS_P1;PMS_P2;Temp;Humidity;BMP_temperature;BMP_pressure;BME280_temperature;BME280_humidity;BME280_pressure;Samples;Min_cycle;Max_cycle;Signal;HPM_P1;HPM_P2
2023/04/14 00:00:17;;;;;;;3.90;3.60;;;5.00;99.90;;;;;;5075959;28;20412;-71
2023/04/14 00:02:43;;;;;;;10.27;4.90;;;5.00;99.90;;;;;;5076572;28;20185;-71
2023/04/14 00:05:09;;;;;;;3.70;3.50;;;5.00;99.90;;;;;;5076478;28;20384;-71
2023/04/14 00:07:34;;;;;;;3.60;3.30;;;5.00;99.90;;;;;;5057299;28;20446;-68
2023/04/14 00:10:00;;;;;;;4.43;4.00;;;5.00;99.90;;;;;;5076255;28;20200;-69
2023/04/14 00:12:26;;;;;;;3.60;3.30;;;5.00;99.90;;;;;;5075597;28;20189;-70
2023/04/14 00:14:51;;;;;;;3.80;3.40;;;4.90;99.90;;;;;;5075485;28;20182;-68
2023/04/14 00:17:17;;;;;;;3.63;3.33;;;4.90;99.90;;;;;;5076209;28;20296;-69
2023/04/14 00:19:43;;;;;;;5.50;2.63;;;4.90;99.90;;;;;;5058401;28;20212;-69
2023/04/14 00:22:08;;;;;;;4.13;3.73;;;4.90;99.90;;;;;;5074996;28;20207;-71
2023/04/14 00:24:41;;;;;;;4.10;3.60;;;4.90;99.90;;;;;;5075454;28;20807;-71
2023/04/14 00:27:10;;;;;;;3.97;3.60;;;4.90;99.90;;;;;;5076175;28;20166;-69
2023/04/14 00:29:39;;;;;;;6.47;4.47;;;4.90;99.90;;;;;;5076003;28;20407;-71
2023/04/14 00:32:05;;;;;;;8.80;4.03;;;4.90;99.90;;;;;;5075005;28;20420;-69
2023/04/14 00:34:31;;;;;;;5.10;3.90;;;4.90;99.90;;;;;;5058532;28;20408;-71
2023/04/14 00:36:57;;;;;;;4.43;4.13;;;4.90;99.90;;;;;;5075619;28;20474;-71
2023/04/14 00:39:23;;;;;;;5.87;5.27;;;4.90;99.90;;;;;;5075861;28;20407;-71
2023/04/14 00:41:48;;;;;;;4.63;4.33;;;4.90;99.90;;;;;;5074447;28;20462;-69
2023/04/14 00:44:14;;;;;;;5.57;5.00;;;4.90;99.90;;;;;;5057164;28;20307;-69
2023/04/14 00:46:41;;;;;;;4.67;4.27;;;4.90;99.90;;;;;;5075801;28;20166;-68
2023/04/14 00:49:07;;;;;;;5.87;4.40;;;4.80;99.90;;;;;;5075278;28;20434;-70
2023/04/14 00:51:33;;;;;;;6.43;4.90;;;4.80;99.90;;;;;;5074848;28;20428;-71
2023/04/14 00:54:01;;;;;;;5.60;5.10;;;4.80;99.90;;;;;;5058099;28;20469;-71
2023/04/14 00:56:30;;;;;;;5.70;4.53;;;4.80;99.90;;;;;;5075097;28;20467;-71
2023/04/14 00:58:58;;;;;;;4.97;4.60;;;4.70;99.90;;;;;;5075735;28;20408;-69
2023/04/14 01:01:24;;;;;;;5.30;4.33;;;4.70;99.90;;;;;;5074587;28;20964;-71
2023/04/14 01:03:51;;;;;;;5.70;5.20;;;4.70;99.90;;;;;;5074519;28;20422;-69
2023/04/14 01:06:17;;;;;;;3.90;3.70;;;4.60;99.90;;;;;;5075385;28;20421;-69
2023/04/14 01:08:43;;;;;;;4.73;4.10;;;4.60;99.90;;;;;;5075184;28;20904;-71
2023/04/14 01:11:29;;;;;;;6.73;6.10;;;4.50;99.90;;;;;;5074030;28;20529;-71
2023/04/14 01:14:06;;;;;;;5.97;4.57;;;4.50;99.90;;;;;;5075239;28;20483;-71
2023/04/14 01:16:36;;;;;;;3.90;3.60;;;4.50;99.90;;;;;;5075694;28;20465;-70
2023/04/14 01:19:17;;;;;;;4.40;4.20;;;4.50;99.90;;;;;;5075335;28;20396;-69
2023/04/14 01:21:48;;;;;;;5.73;3.63;;;4.40;99.90;;;;;;5056265;28;20432;-68
2023/04/14 01:24:44;;;;;;;4.63;4.23;;;4.30;99.90;;;;;;5074561;28;20444;-70
2023/04/14 01:27:13;;;;;;;3.97;3.67;;;4.30;99.90;;;;;;5075209;28;20431;-67
2023/04/14 01:30:07;;;;;;;4.87;4.30;;;4.30;99.90;;;;;;5067062;28;20930;-68
2023/04/14 01:32:37;;;;;;;5.00;3.87;;;4.30;99.90;;;;;;5074781;28;20434;-68
2023/04/14 01:35:12;;;;;;;4.67;4.33;;;4.20;99.90;;;;;;5073602;28;20414;-67
2023/04/14 01:37:45;;;;;;;3.93;3.70;;;4.20;99.90;;;;;;5057026;28;20408;-67
2023/04/14 01:40:15;;;;;;;4.37;4.00;;;4.10;99.90;;;;;;5073167;28;20406;-68
2023/04/14 01:42:45;;;;;;;3.83;3.63;;;4.10;99.90;;;;;;5074163;28;20414;-67
2023/04/14 01:45:19;;;;;;;4.80;4.40;;;4.00;99.90;;;;;;5074773;28;20479;-66
2023/04/14 01:47:46;;;;;;;4.33;3.93;;;4.00;99.90;;;;;;5074571;28;20392;-68
2023/04/14 01:50:13;;;;;;;4.40;4.10;;;3.90;99.90;;;;;;5073819;28;20398;-68
2023/04/14 01:52:43;;;;;;;7.37;4.20;;;3.90;99.90;;;;;;5074471;28;20419;-68
2023/04/14 01:55:10;;;;;;;14.10;4.20;;;3.90;99.90;;;;;;5074333;28;20394;-68
2023/04/14 01:57:37;;;;;;;5.20;4.00;;;3.80;99.90;;;;;;5073368;28;20436;-66
2023/04/14 02:00:04;;;;;;;4.57;4.27;;;3.80;99.90;;;;;;5073633;28;20411;-68
2023/04/14 02:02:31;;;;;;;3.83;3.53;;;3.80;99.90;;;;;;5074032;28;20898;-66
2023/04/14 02:04:57;;;;;;;5.00;4.63;;;3.70;99.90;;;;;;5074372;28;20409;-69
2023/04/14 02:07:25;;;;;;;4.47;4.10;;;3.70;99.90;;;;;;5074206;28;20424;-69
2023/04/14 02:09:52;;;;;;;4.70;4.30;;;3.60;99.90;;;;;;5056154;28;20417;-66
2023/04/14 02:12:22;;;;;;;5.00;4.30;;;3.60;99.90;;;;;;5072953;28;20466;-66
2023/04/14 02:14:50;;;;;;;6.67;3.93;;;3.60;99.90;;;;;;5074117;28;20455;-68
2023/04/14 02:17:18;;;;;;;5.27;4.80;;;3.60;99.90;;;;;;5073034;28;20470;-69
2023/04/14 02:19:45;;;;;;;6.33;5.00;;;3.50;99.90;;;;;;5073311;28;20397;-68
2023/04/14 02:22:10;;;;;;;4.53;4.23;;;3.50;99.90;;;;;;5055305;28;20421;-68
2023/04/14 02:24:36;;;;;;;3.70;3.40;;;3.60;99.90;;;;;;5073900;28;20413;-68
2023/04/14 02:27:09;;;;;;;4.77;4.47;;;3.50;99.90;;;;;;5073346;28;20434;-66
2023/04/14 02:29:39;;;;;;;8.73;3.83;;;3.50;99.90;;;;;;5073930;28;20163;-66
2023/04/14 02:32:11;;;;;;;4.20;3.90;;;3.40;99.90;;;;;;5072729;28;20420;-68
2023/04/14 02:34:49;;;;;;;4.77;4.47;;;3.40;99.90;;;;;;5073723;28;20396;-66
2023/04/14 02:37:20;;;;;;;4.67;4.40;;;3.40;99.90;;;;;;5072725;28;20449;-65
2023/04/14 02:39:52;;;;;;;4.10;3.70;;;3.40;99.90;;;;;;5073633;28;20408;-67
2023/04/14 02:42:25;;;;;;;4.60;4.20;;;3.30;99.90;;;;;;5072037;28;20463;-68
2023/04/14 02:44:57;;;;;;;4.93;4.27;;;3.40;99.90;;;;;;5055747;28;20445;-66
2023/04/14 02:47:30;;;;;;;4.13;3.87;;;3.30;99.90;;;;;;5073423;28;20455;-66
2023/04/14 02:49:59;;;;;;;4.10;3.90;;;3.30;99.90;;;;;;5073243;28;20769;-66
2023/04/14 02:52:28;;;;;;;5.20;4.80;;;3.30;99.90;;;;;;5072616;28;20435;-66
2023/04/14 02:54:55;;;;;;;7.67;5.70;;;3.20;99.90;;;;;;5073070;28;21015;-68
2023/04/14 02:57:21;;;;;;;5.00;4.70;;;3.10;99.90;;;;;;5072563;28;20970;-68
2023/04/14 02:59:48;;;;;;;7.13;4.10;;;3.10;99.90;;;;;;5073325;28;20397;-68
2023/04/14 03:02:15;;;;;;;4.50;4.20;;;3.00;99.90;;;;;;5072604;28;20182;-66
2023/04/14 03:04:41;;;;;;;5.07;4.57;;;3.00;99.90;;;;;;5073281;28;20411;-68
2023/04/14 03:07:10;;;;;;;4.20;3.90;;;3.00;99.90;;;;;;5055447;28;20518;-68
2023/04/14 03:09:36;;;;;;;4.53;4.23;;;3.00;99.90;;;;;;5072988;28;20193;-66
2023/04/14 03:12:03;;;;;;;10.23;6.50;;;3.00;99.90;;;;;;5072207;28;20499;-66
2023/04/14 03:14:30;;;;;;;4.13;3.73;;;2.90;99.90;;;;;;5073111;28;20478;-68
2023/04/14 03:16:57;;;;;;;6.77;4.50;;;2.90;99.90;;;;;;5072395;28;20825;-67
2023/04/14 03:19:25;;;;;;;4.30;4.00;;;2.90;99.90;;;;;;5054923;28;20909;-68
2023/04/14 03:21:53;;;;;;;6.10;3.93;;;3.00;99.90;;;;;;5072126;28;20416;-68
2023/04/14 03:24:26;;;;;;;5.03;4.43;;;3.00;99.90;;;;;;5072639;28;20917;-66
2023/04/14 03:26:58;;;;;;;4.10;3.80;;;3.00;99.90;;;;;;5072994;28;20414;-68
2023/04/14 03:29:27;;;;;;;4.67;4.37;;;3.00;99.90;;;;;;5072962;28;20492;-66
2023/04/14 03:32:00;;;;;;;4.20;3.90;;;3.00;99.90;;;;;;5054174;28;20436;-66
2023/04/14 03:34:30;;;;;;;5.10;4.60;;;3.00;99.90;;;;;;5072913;28;20742;-66
2023/04/14 03:36:58;;;;;;;6.10;5.53;;;3.00;99.90;;;;;;5054038;28;20856;-66
2023/04/14 03:39:26;;;;;;;6.20;5.30;;;3.00;99.90;;;;;;5072390;28;20424;-66
2023/04/14 03:41:54;;;;;;;5.87;4.80;;;3.00;99.90;;;;;;5071966;28;20419;-68
2023/04/14 03:44:22;;;;;;;10.43;4.73;;;2.90;99.90;;;;;;5072964;28;20911;-66
2023/04/14 03:46:48;;;;;;;4.90;4.50;;;2.90;99.90;;;;;;5072811;28;20749;-67
2023/04/14 03:49:16;;;;;;;5.77;4.30;;;2.90;99.90;;;;;;5072761;28;20408;-66
2023/04/14 03:51:47;;;;;;;5.20;4.17;;;2.90;99.90;;;;;;5070908;28;20188;-66
2023/04/14 03:54:15;;;;;;;6.57;4.40;;;2.90;99.90;;;;;;5072248;28;20432;-68
2023/04/14 03:56:44;;;;;;;4.43;4.03;;;2.90;99.90;;;;;;5072678;28;20456;-68
2023/04/14 03:59:14;;;;;;;4.73;4.33;;;2.90;99.90;;;;;;5072659;28;20518;-67
2023/04/14 04:01:40;;;;;;;4.97;4.57;;;2.90;99.90;;;;;;5053834;28;20432;-68
2023/04/14 04:04:06;;;;;;;4.57;4.27;;;2.90;99.90;;;;;;5072181;28;20439;-68
2023/04/14 04:06:33;;;;;;;4.60;4.13;;;2.90;99.90;;;;;;5072505;28;20435;-67
2023/04/14 04:09:01;;;;;;;5.77;4.90;;;2.90;99.90;;;;;;5072028;28;20407;-67
2023/04/14 04:11:28;;;;;;;4.70;4.30;;;2.90;99.90;;;;;;5071180;28;20443;-67
2023/04/14 04:13:56;;;;;;;7.70;5.17;;;2.90;99.90;;;;;;5072594;28;20411;-68
2023/04/14 04:16:23;;;;;;;4.43;4.10;;;2.90;99.90;;;;;;5072561;28;20448;-67
2023/04/14 04:18:49;;;;;;;3.70;3.40;;;2.90;99.90;;;;;;5071977;28;20430;-66
2023/04/14 04:21:17;;;;;;;3.83;3.50;;;2.90;99.90;;;;;;5071495;28;20377;-68
2023/04/14 04:23:51;;;;;;;3.80;3.60;;;2.80;99.90;;;;;;5072378;28;20468;-67
2023/04/14 04:26:18;;;;;;;4.50;4.00;;;2.80;99.90;;;;;;5072691;28;20439;-66
2023/04/14 04:28:44;;;;;;;3.60;3.30;;;2.80;99.90;;;;;;5053471;28;20808;-66
2023/04/14 04:31:11;;;;;;;4.17;3.87;;;2.80;99.90;;;;;;5071504;28;20408;-67
2023/04/14 04:33:37;;;;;;;3.67;3.47;;;2.90;99.90;;;;;;5071400;28;20483;-66
2023/04/14 04:36:05;;;;;;;4.13;3.83;;;2.90;99.90;;;;;;5072340;28;20471;-68
2023/04/14 04:38:31;;;;;;;4.93;4.50;;;2.90;99.90;;;;;;5072377;28;20431;-68
2023/04/14 04:40:57;;;;;;;5.70;4.10;;;2.90;99.90;;;;;;5071566;28;20487;-66
2023/04/14 04:43:22;;;;;;;4.37;3.97;;;2.90;99.90;;;;;;5074826;28;20500;-68
2023/04/14 04:45:57;;;;;;;4.73;4.40;;;2.90;99.90;;;;;;5075479;28;20599;-66
2023/04/14 04:48:23;;;;;;;4.80;4.40;;;2.80;99.90;;;;;;5075019;28;20184;-67
2023/04/14 04:50:49;;;;;;;4.43;4.00;;;2.90;99.90;;;;;;5075043;28;20408;-67
2023/04/14 04:53:15;;;;;;;3.90;3.60;;;2.80;99.90;;;;;;5075605;28;20432;-66
2023/04/14 04:55:41;;;;;;;5.87;4.13;;;2.90;99.90;;;;;;5075717;28;20193;-67
2023/04/14 04:58:08;;;;;;;4.93;4.60;;;2.90;99.90;;;;;;5075687;28;20757;-68
2023/04/14 05:00:33;;;;;;;5.37;4.10;;;2.90;99.90;;;;;;5074210;28;20929;-68
2023/04/14 05:02:59;;;;;;;4.30;3.83;;;3.00;99.90;;;;;;5075041;28;20438;-67
2023/04/14 05:05:26;;;;;;;6.97;3.83;;;3.00;99.90;;;;;;5075101;28;20170;-66
2023/04/14 05:07:51;;;;;;;5.17;4.30;;;3.00;99.90;;;;;;5075404;28;20202;-66
2023/04/14 05:10:17;;;;;;;6.17;3.80;;;3.00;99.90;;;;;;5074713;28;20477;-68
2023/04/14 05:12:43;;;;;;;4.57;3.60;;;3.00;99.90;;;;;;5075346;28;20182;-66
2023/04/14 05:15:09;;;;;;;5.17;4.57;;;3.00;99.90;;;;;;5075317;28;20235;-68
2023/04/14 05:17:35;;;;;;;3.90;3.70;;;3.00;99.90;;;;;;5075280;28;20254;-66
2023/04/14 05:20:02;;;;;;;4.40;4.10;;;3.00;99.90;;;;;;5074929;28;20409;-68
2023/04/14 05:22:28;;;;;;;7.13;4.00;;;3.00;99.90;;;;;;5073915;28;20432;-66
2023/04/14 05:24:54;;;;;;;7.23;4.63;;;3.10;99.90;;;;;;5075192;28;20417;-68
2023/04/14 05:27:20;;;;;;;4.83;4.50;;;3.10;99.90;;;;;;5075090;28;20698;-68
2023/04/14 05:29:46;;;;;;;4.67;4.37;;;3.20;99.90;;;;;;5092139;28;20643;-67
2023/04/14 05:32:13;;;;;;;7.17;5.23;;;3.30;99.90;;;;;;5094319;28;20481;-66
2023/04/14 05:34:39;;;;;;;4.23;3.93;;;3.40;99.90;;;;;;5095324;28;20575;-66
2023/04/14 05:37:05;;;;;;;4.13;3.87;;;3.40;99.90;;;;;;5095187;28;20947;-66
2023/04/14 05:39:31;;;;;;;4.30;3.90;;;3.50;99.90;;;;;;5094460;28;20459;-69
2023/04/14 05:41:58;;;;;;;4.60;4.30;;;3.60;99.90;;;;;;5094047;28;20183;-69
2023/04/14 05:44:24;;;;;;;4.83;4.43;;;3.60;99.90;;;;;;5076363;28;20175;-70
2023/04/14 05:46:50;;;;;;;5.27;4.30;;;3.70;99.90;;;;;;5074848;28;20881;-73
2023/04/14 05:49:16;;;;;;;4.40;4.00;;;3.70;99.90;;;;;;5074654;28;20401;-71
2023/04/14 05:51:42;;;;;;;6.10;5.60;;;3.80;99.90;;;;;;5072615;28;20440;-70
2023/04/14 05:54:07;;;;;;;5.23;4.87;;;3.80;99.90;;;;;;5055441;28;20404;-69
2023/04/14 05:56:33;;;;;;;4.40;4.00;;;3.90;99.90;;;;;;5073213;28;20202;-70
2023/04/14 05:59:00;;;;;;;4.77;4.30;;;3.90;99.90;;;;;;5073610;28;20163;-66
2023/04/14 06:01:26;;;;;;;4.17;3.87;;;4.10;99.90;;;;;;5073531;28;20446;-66
2023/04/14 06:03:51;;;;;;;4.63;4.23;;;4.20;99.90;;;;;;5074312;28;20845;-68
2023/04/14 06:06:18;;;;;;;4.93;4.53;;;4.30;99.90;;;;;;5081169;28;20257;-68
2023/04/14 06:08:45;;;;;;;4.83;4.30;;;4.40;99.90;;;;;;5093029;28;20181;-68
2023/04/14 06:11:10;;;;;;;5.60;5.10;;;4.60;99.90;;;;;;5093718;28;20399;-69
2023/04/14 06:13:36;;;;;;;7.63;5.47;;;4.70;99.90;;;;;;5094139;28;20973;-71
2023/04/14 06:16:02;;;;;;;5.80;4.93;;;4.90;99.90;;;;;;5093560;28;20455;-69
2023/04/14 06:18:28;;;;;;;11.07;6.90;;;5.10;1.00;;;;;;5076189;28;20194;-69
2023/04/14 06:20:53;;;;;;;9.90;7.70;;;5.20;1.00;;;;;;5093699;28;20170;-68
2023/04/14 06:23:20;;;;;;;8.63;7.77;;;5.40;1.00;;;;;;5076328;28;20204;-72
2023/04/14 06:25:46;;;;;;;9.47;8.17;;;5.50;1.00;;;;;;5074005;28;20158;-71
2023/04/14 06:28:12;;;;;;;12.73;9.47;;;5.70;1.00;;;;;;5073834;28;20400;-72
2023/04/14 06:30:38;;;;;;;11.93;10.13;;;5.90;1.00;;;;;;5073011;28;20401;-69
2023/04/14 06:33:03;;;;;;;10.13;8.23;;;5.90;1.00;;;;;;5072478;28;20823;-69
2023/04/14 06:35:33;;;;;;;13.13;9.17;;;6.10;1.00;;;;;;5083877;28;20181;-69
2023/04/14 06:38:00;;;;;;;13.70;9.10;;;6.10;1.00;;;;;;5094149;28;20164;-69
2023/04/14 06:40:26;;;;;;;9.57;8.40;;;6.20;1.00;;;;;;5074831;28;20473;-71
2023/04/14 06:42:51;;;;;;;11.27;8.77;;;6.30;1.00;;;;;;5084389;28;20887;-70
2023/04/14 06:45:17;;;;;;;13.67;8.43;;;6.50;1.00;;;;;;5073672;28;20166;-72
2023/04/14 06:47:43;;;;;;;9.20;7.43;;;6.50;1.00;;;;;;5073684;28;20173;-70
2023/04/14 06:50:09;;;;;;;13.07;8.90;;;6.60;1.00;;;;;;5053660;28;20178;-72
2023/04/14 06:52:35;;;;;;;8.00;7.10;;;6.80;1.00;;;;;;5055044;28;20219;-70
2023/04/14 06:55:00;;;;;;;8.60;7.80;;;6.90;1.00;;;;;;5073483;28;20856;-71
2023/04/14 06:57:26;;;;;;;8.40;7.60;;;7.00;1.00;;;;;;5073444;28;20199;-72
2023/04/14 06:59:52;;;;;;;15.53;8.87;;;7.10;1.00;;;;;;5073228;28;20166;-72
2023/04/14 07:02:18;;;;;;;20.33;7.80;;;7.20;1.00;;;;;;5072571;28;20671;-70
2023/04/14 07:04:43;;;;;;;12.60;8.60;;;7.30;1.00;;;;;;5072536;28;20601;-70
2023/04/14 07:07:09;;;;;;;7.73;6.60;;;7.50;1.00;;;;;;5073221;28;20193;-72
2023/04/14 07:09:35;;;;;;;7.90;6.90;;;7.60;1.00;;;;;;5054630;28;20247;-71
2023/04/14 07:12:01;;;;;;;12.13;6.27;;;7.70;1.00;;;;;;5071959;28;20399;-72
2023/04/14 07:14:26;;;;;;;9.60;6.10;;;7.80;1.00;;;;;;5073170;28;20224;-72
2023/04/14 07:16:52;;;;;;;11.07;5.70;;;7.90;1.00;;;;;;5073179;28;20197;-69
2023/04/14 07:19:19;;;;;;;8.77;3.67;;;8.00;1.00;;;;;;5072715;28;20527;-70
2023/04/14 07:21:45;;;;;;;8.20;4.23;;;8.20;1.00;;;;;;5072165;28;20518;-71
2023/04/14 07:24:11;;;;;;;7.20;4.20;;;8.30;1.00;;;;;;5073212;28;20403;-69
2023/04/14 07:26:37;;;;;;;4.50;3.23;;;8.30;1.00;;;;;;5072922;28;20470;-70
2023/04/14 07:29:03;;;;;;;8.77;3.50;;;8.40;1.00;;;;;;5073023;28;20422;-69
2023/04/14 07:31:32;;;;;;;6.10;4.10;;;8.40;1.00;;;;;;5071194;28;20175;-69
2023/04/14 07:33:58;;;;;;;5.00;3.70;;;8.50;1.00;;;;;;5072542;28;20219;-71
2023/04/14 07:36:24;;;;;;;4.07;3.67;;;8.60;1.00;;;;;;5072356;28;20527;-71
2023/04/14 07:38:50;;;;;;;5.43;3.50;;;8.60;1.00;;;;;;5072768;28;20168;-69
2023/04/14 07:41:17;;;;;;;6.13;3.50;;;8.70;99.90;;;;;;5071927;28;20167;-69
2023/04/14 07:43:43;;;;;;;7.53;3.50;;;8.80;99.90;;;;;;5072688;28;20405;-70
2023/04/14 07:46:08;;;;;;;5.70;3.57;;;8.90;99.90;;;;;;5072288;28;20414;-72
2023/04/14 07:48:36;;;;;;;10.60;5.53;;;8.90;99.90;;;;;;5072433;28;20178;-72
2023/04/14 07:51:03;;;;;;;3.60;3.10;;;8.90;99.90;;;;;;5071390;28;20165;-72
2023/04/14 07:53:30;;;;;;;5.60;3.60;;;9.00;99.90;;;;;;5072679;28;20460;-70
2023/04/14 07:55:56;;;;;;;4.50;3.30;;;9.10;99.90;;;;;;5072572;28;20918;-72
2023/04/14 07:58:22;;;;;;;6.33;4.83;;;9.20;99.90;;;;;;5054992;28;20886;-71
2023/04/14 08:00:48;;;;;;;4.70;3.20;;;9.40;99.90;;;;;;5071201;28;20398;-72
2023/04/14 08:03:14;;;;;;;6.67;3.30;;;9.50;99.90;;;;;;5072711;28;20424;-69
2023/04/14 08:05:40;;;;;;;10.00;4.03;;;9.60;99.90;;;;;;5072853;28;20645;-69
2023/04/14 08:08:07;;;;;;;8.90;3.30;;;9.60;99.90;;;;;;5071785;28;20208;-70
2023/04/14 08:10:33;;;;;;;7.03;2.80;;;9.60;99.90;;;;;;5071695;28;20430;-70
2023/04/14 08:12:59;;;;;;;14.57;4.20;;;9.70;99.90;;;;;;5072543;28;20445;-69
2023/04/14 08:15:25;;;;;;;4.13;3.47;;;9.80;99.90;;;;;;5071906;28;20464;-69
2023/04/14 08:17:51;;;;;;;5.30;3.40;;;9.80;99.90;;;;;;5073176;28;20382;-70
2023/04/14 08:20:17;;;;;;;3.77;3.20;;;9.80;99.90;;;;;;5075727;28;20390;-71
2023/04/14 08:22:43;;;;;;;5.83;3.37;;;9.90;99.90;;;;;;5076235;28;20431;-71
2023/04/14 08:25:10;;;;;;;3.57;3.27;;;9.90;99.90;;;;;;5075443;28;20375;-72
2023/04/14 08:27:37;;;;;;;9.97;3.33;;;10.00;99.90;;;;;;5076425;28;20496;-71
2023/04/14 08:30:04;;;;;;;7.30;3.93;;;10.10;99.90;;;;;;5075464;28;20420;-69
2023/04/14 08:32:30;;;;;;;12.03;3.30;;;10.30;99.90;;;;;;5075931;28;20423;-72
2023/04/14 08:34:56;;;;;;;10.43;3.83;;;10.30;99.90;;;;;;5076167;28;20400;-69
2023/04/14 08:37:22;;;;;;;9.47;3.00;;;10.50;99.90;;;;;;5075886;28;20556;-69
2023/04/14 08:39:50;;;;;;;9.20;3.50;;;10.60;99.90;;;;;;5076014;28;20162;-71
2023/04/14 08:42:19;;;;;;;16.00;3.83;;;10.60;99.90;;;;;;5074118;28;20674;-69
2023/04/14 08:44:46;;;;;;;9.80;3.70;;;10.80;99.90;;;;;;5075957;28;20405;-69
2023/04/14 08:47:13;;;;;;;3.93;3.20;;;10.90;99.90;;;;;;5075834;28;20860;-71
2023/04/14 08:49:48;;;;;;;10.97;2.80;;;10.90;99.90;;;;;;5076005;28;20403;-68
2023/04/14 08:52:17;;;;;;;3.37;3.07;;;10.90;99.90;;;;;;5075018;28;20457;-73
2023/04/14 08:54:46;;;;;;;7.43;3.30;;;11.00;99.90;;;;;;5075588;28;20752;-73
2023/04/14 08:57:17;;;;;;;9.03;4.10;;;10.90;99.90;;;;;;5075650;28;20517;-71
2023/04/14 08:59:44;;;;;;;5.90;3.00;;;10.90;99.90;;;;;;5075622;28;20375;-73
2023/04/14 09:02:10;;;;;;;7.00;3.07;;;10.90;99.90;;;;;;5074063;28;20383;-72
2023/04/14 09:04:36;;;;;;;8.17;2.70;;;10.90;99.90;;;;;;5075632;28;20395;-72
2023/04/14 09:07:03;;;;;;;8.80;3.17;;;10.90;99.90;;;;;;5075650;28;20420;-72
2023/04/14 09:09:30;;;;;;;3.40;2.63;;;10.90;99.90;;;;;;5074802;28;20497;-69
2023/04/14 09:12:01;;;;;;;4.20;2.43;;;11.10;99.90;;;;;;5074383;28;20395;-70
2023/04/14 09:14:28;;;;;;;7.33;3.13;;;11.20;99.90;;;;;;5075485;28;20400;-73
2023/04/14 09:16:55;;;;;;;5.37;3.57;;;11.30;99.90;;;;;;5075300;28;20793;-68
2023/04/14 09:19:23;;;;;;;5.37;3.37;;;11.30;99.90;;;;;;5074703;28;20859;-70
2023/04/14 09:21:49;;;;;;;3.93;2.70;;;11.40;99.90;;;;;;5074054;28;20451;-68
2023/04/14 09:24:22;;;;;;;5.80;3.67;;;11.50;99.90;;;;;;5075271;28;20404;-69
2023/04/14 09:26:51;;;;;;;13.13;4.67;;;11.60;99.90;;;;;;5075277;28;20405;-72
2023/04/14 09:29:17;;;;;;;11.97;3.23;;;11.70;92.60;;;;;;5074904;28;20375;-72
2023/04/14 09:31:46;;;;;;;11.23;3.30;;;11.50;87.10;;;;;;5074180;28;20504;-68
2023/04/14 09:34:19;;;;;;;6.23;3.50;;;11.40;76.30;;;;;;5075040;28;20734;-72
2023/04/14 09:37:02;;;;;;;6.33;2.50;;;11.50;81.80;;;;;;5080474;28;21020;-70
2023/04/14 09:39:28;;;;;;;4.80;2.53;;;11.60;75.60;;;;;;5095135;28;20409;-72
2023/04/14 09:41:54;;;;;;;7.60;2.83;;;11.60;65.70;;;;;;5094109;28;20418;-71
2023/04/14 09:44:20;;;;;;;9.80;3.27;;;11.60;64.20;;;;;;5095158;28;20407;-72
2023/04/14 09:47:06;;;;;;;13.27;3.37;;;11.60;48.90;;;;;;5095027;28;20961;-69
2023/04/14 09:49:32;;;;;;;6.47;2.80;;;11.70;43.50;;;;;;5090928;28;20406;-71
2023/04/14 09:52:07;;;;;;;5.57;2.60;;;11.60;32.50;;;;;;5073796;28;20428;-72
2023/04/14 09:54:33;;;;;;;10.10;3.20;;;11.50;24.10;;;;;;5074122;28;20394;-69
2023/04/14 09:57:00;;;;;;;7.67;3.10;;;11.40;21.10;;;;;;5074425;28;20974;-68
2023/04/14 09:59:37;;;;;;;3.13;2.40;;;11.20;21.70;;;;;;5074650;28;20392;-69
2023/04/14 10:02:05;;;;;;;8.60;4.00;;;11.20;26.90;;;;;;5073447;28;20401;-69
2023/04/14 10:04:31;;;;;;;7.33;2.80;;;11.20;25.40;;;;;;5073773;28;21159;-69
2023/04/14 10:07:00;;;;;;;8.83;3.13;;;11.00;19.20;;;;;;5073699;28;20464;-70
2023/04/14 10:09:28;;;;;;;7.20;3.07;;;11.00;21.50;;;;;;5074047;28;20166;-68
2023/04/14 10:12:08;;;;;;;5.37;3.03;;;10.90;24.20;;;;;;5072914;28;20421;-71
2023/04/14 10:14:35;;;;;;;5.53;3.27;;;11.00;27.20;;;;;;5074121;28;20392;-69
2023/04/14 10:17:01;;;;;;;16.77;3.30;;;11.00;28.80;;;;;;5073142;28;20465;-72
2023/04/14 10:19:28;;;;;;;14.30;3.50;;;11.00;35.00;;;;;;5074152;28;20405;-72
2023/04/14 10:21:54;;;;;;;9.83;3.80;;;11.10;29.70;;;;;;5073022;28;20189;-69
2023/04/14 10:24:21;;;;;;;5.90;2.83;;;11.10;26.20;;;;;;5074187;28;20454;-69
2023/04/14 10:26:48;;;;;;;9.00;3.10;;;11.10;22.20;;;;;;5074060;28;20408;-69
2023/04/14 10:29:15;;;;;;;11.33;3.50;;;11.20;14.40;;;;;;5073758;28;20404;-70
2023/04/14 10:31:57;;;;;;;8.80;3.50;;;11.30;21.90;;;;;;5072550;28;20386;-71
2023/04/14 10:34:24;;;;;;;5.13;2.53;;;11.40;12.60;;;;;;5073683;28;20416;-70
2023/04/14 10:36:50;;;;;;;5.30;2.50;;;11.50;15.30;;;;;;5073833;28;20538;-72
2023/04/14 10:39:23;;;;;;;11.70;3.00;;;11.60;10.50;;;;;;5073616;28;20435;-69
2023/04/14 10:41:51;;;;;;;8.20;2.87;;;11.70;1.60;;;;;;5054580;28;20551;-71
2023/04/14 10:44:27;;;;;;;6.77;4.27;;;11.70;1.00;;;;;;5073211;28;20409;-69
2023/04/14 10:50:03;;;;;;;7.43;3.03;;;11.70;1.00;;;;;;5072847;28;20423;-70
2023/04/14 10:52:30;;;;;;;9.87;3.77;;;11.80;1.00;;;;;;5072901;28;20394;-72
2023/04/14 10:55:06;;;;;;;4.67;3.37;;;11.90;1.00;;;;;;5073375;28;20793;-69
2023/04/14 10:57:46;;;;;;;6.40;2.90;;;11.90;7.80;;;;;;5073495;28;20447;-69
2023/04/14 11:00:18;;;;;;;8.40;3.57;;;12.00;5.10;;;;;;5072538;28;20396;-69
2023/04/14 11:03:09;;;;;;;6.53;2.57;;;11.90;1.00;;;;;;5073078;28;20420;-72
2023/04/14 11:05:41;;;;;;;6.37;2.47;;;12.00;1.00;;;;;;5073557;28;20397;-69
2023/04/14 11:08:13;;;;;;;4.90;2.67;;;12.10;1.00;;;;;;5072776;28;20466;-70
2023/04/14 11:10:40;;;;;;;10.73;2.80;;;12.20;1.00;;;;;;5072443;28;20758;-69
2023/04/14 11:13:10;;;;;;;7.30;2.60;;;12.40;1.00;;;;;;5072585;28;20440;-71
2023/04/14 11:15:46;;;;;;;6.30;2.80;;;12.50;1.00;;;;;;5073207;28;20385;-72
2023/04/14 11:18:33;;;;;;;9.23;3.63;;;12.70;1.00;;;;;;5073232;28;20400;-69
2023/04/14 11:21:03;;;;;;;4.43;2.70;;;12.60;1.00;;;;;;5072051;28;20523;-69
2023/04/14 11:23:29;;;;;;;11.03;5.37;;;12.40;1.00;;;;;;5073111;28;20417;-69
2023/04/14 11:25:56;;;;;;;5.83;2.87;;;12.20;1.00;;;;;;5072525;28;20470;-71
2023/04/14 11:28:36;;;;;;;5.03;2.70;;;12.00;1.00;;;;;;5073076;28;20440;-70
2023/04/14 11:31:05;;;;;;;3.77;2.53;;;12.00;1.00;;;;;;5072184;28;20420;-71
2023/04/14 11:33:38;;;;;;;2.73;2.27;;;11.80;1.00;;;;;;5073019;28;20836;-69
2023/04/14 11:36:06;;;;;;;10.17;2.83;;;11.80;1.00;;;;;;5072803;28;20463;-69
2023/04/14 11:38:39;;;;;;;7.70;2.30;;;11.80;1.00;;;;;;5072571;28;20912;-71
2023/04/14 11:41:05;;;;;;;2.73;2.20;;;12.00;1.00;;;;;;5071572;28;20756;-71
2023/04/14 11:43:30;;;;;;;7.00;2.17;;;12.00;1.00;;;;;;5055152;28;20433;-70
2023/04/14 11:45:58;;;;;;;2.73;1.50;;;12.10;1.00;;;;;;5072912;28;20412;-72
2023/04/14 11:48:27;;;;;;;4.80;1.87;;;12.10;1.00;;;;;;5072826;28;20522;-72
2023/04/14 11:50:54;;;;;;;2.33;2.13;;;12.10;1.00;;;;;;5071864;28;20404;-71
2023/04/14 11:53:20;;;;;;;6.60;2.10;;;12.10;1.00;;;;;;5075704;28;20460;-71
2023/04/14 11:55:50;;;;;;;2.00;1.80;;;12.00;1.00;;;;;;5092437;28;20491;-71
2023/04/14 11:58:25;;;;;;;3.67;2.20;;;12.10;1.00;;;;;;5097036;28;20385;-72
2023/04/14 12:00:52;;;;;;;4.83;2.60;;;12.00;1.00;;;;;;5096266;28;20402;-72
2023/04/14 12:03:20;;;;;;;8.40;2.40;;;11.90;1.00;;;;;;5096948;28;20419;-72
2023/04/14 12:05:47;;;;;;;7.43;2.40;;;11.70;1.00;;;;;;5097084;28;20382;-71
2023/04/14 12:08:13;;;;;;;10.30;3.80;;;11.50;1.00;;;;;;5085946;28;20444;-72
2023/04/14 12:10:45;;;;;;;2.67;2.20;;;11.50;1.00;;;;;;5075742;28;20814;-72
2023/04/14 12:13:11;;;;;;;2.40;2.07;;;11.40;1.00;;;;;;5076441;28;20509;-71
2023/04/14 12:15:39;;;;;;;7.67;2.93;;;11.40;1.00;;;;;;5076168;28;20471;-70
2023/04/14 12:18:12;;;;;;;8.07;2.83;;;11.30;1.00;;;;;;5076479;28;20163;-72
2023/04/14 12:20:54;;;;;;;6.87;2.53;;;11.40;1.00;;;;;;5075418;28;20428;-69
2023/04/14 12:23:20;;;;;;;3.53;2.30;;;11.50;1.00;;;;;;5075818;28;20987;-70
2023/04/14 12:25:50;;;;;;;8.23;2.07;;;11.60;1.00;;;;;;5076395;28;20765;-72
2023/04/14 12:28:28;;;;;;;5.53;1.93;;;11.80;1.00;;;;;;5076377;28;20751;-71
2023/04/14 12:31:02;;;;;;;5.90;2.47;;;11.80;1.00;;;;;;5074700;28;20428;-69
2023/04/14 12:33:29;;;;;;;3.20;1.83;;;11.60;1.00;;;;;;5075827;28;20794;-71
2023/04/14 12:36:03;;;;;;;3.50;2.07;;;11.70;1.00;;;;;;5075478;28;20438;-72
2023/04/14 12:38:29;;;;;;;3.67;2.00;;;11.90;1.00;;;;;;5075950;28;20462;-70
2023/04/14 12:40:55;;;;;;;7.37;2.67;;;11.90;1.00;;;;;;5075087;28;20432;-69
2023/04/14 12:43:31;;;;;;;4.00;2.60;;;11.80;1.00;;;;;;5075937;28;20472;-71
2023/04/14 12:45:58;;;;;;;5.27;3.57;;;11.70;1.00;;;;;;5076003;28;20266;-71
2023/04/14 12:48:45;;;;;;;8.73;4.53;;;11.60;1.00;;;;;;5075889;28;20396;-70
2023/04/14 12:51:20;;;;;;;4.73;3.10;;;11.60;1.00;;;;;;5074595;28;20857;-70
2023/04/14 12:53:48;;;;;;;5.03;3.90;;;11.90;1.00;;;;;;5075429;28;20416;-71
2023/04/14 12:56:21;;;;;;;8.70;4.67;;;12.00;1.00;;;;;;5075791;28;20452;-72
2023/04/14 12:58:47;;;;;;;9.70;4.83;;;12.10;1.00;;;;;;5075758;28;20408;-72
2023/04/14 13:01:17;;;;;;;6.87;5.07;;;12.20;1.00;;;;;;5074653;28;20404;-71
2023/04/14 13:03:53;;;;;;;12.07;5.30;;;12.10;1.00;;;;;;5056696;28;20419;-70